sensor_id;sensor_type;location;lat;lon;timestamp;pressure;altitude;pressure_sealevel;temperature;humidity
74615;BME280;63121;51.458;-0.110;2023-01-13T00:00:48;100138.22;;;10.89;57.93
74615;BME280;63121;51.458;-0.110;2023-01-13T00:03:14;100136.50;;;10.88;58.15
74615;BME280;63121;51.458;-0.110;2023-01-13T00:05:39;100123.47;;;11.33;56.84
74615;BME280;63121;51.458;-0.110;2023-01-13T00:08:05;100133.19;;;10.83;58.20
74615;BME280;63121;51.458;-0.110;2023-01-13T00:10:33;100138.16;;;10.92;58.25
74615;BME280;63121;51.458;-0.110;2023-01-13T00:12:59;100126.41;;;10.78;58.44
74615;BME280;63121;51.458;-0.110;2023-01-13T00:15:25;100112.41;;;10.89;58.63
74615;BME280;63121;51.458;-0.110;2023-01-13T00:17:50;100120.56;;;11.09;57.63
74615;BME280;63121;51.458;-0.110;2023-01-13T00:20:16;100122.56;;;10.96;57.91
74615;BME280;63121;51.458;-0.110;2023-01-13T00:22:44;100127.75;;;10.95;57.92
74615;BME280;63121;51.458;-0.110;2023-01-13T00:25:09;100123.56;;;10.89;58.44
74615;BME280;63121;51.458;-0.110;2023-01-13T00:27:35;100125.44;;;11.22;57.35
74615;BME280;63121;51.458;-0.110;2023-01-13T00:30:01;100137.03;;;11.41;56.58
74615;BME280;63121;51.458;-0.110;2023-01-13T00:32:27;100146.13;;;11.22;57.19
74615;BME280;63121;51.458;-0.110;2023-01-13T00:34:53;100139.91;;;10.90;57.29
74615;BME280;63121;51.458;-0.110;2023-01-13T00:37:18;100134.91;;;10.84;57.79
74615;BME280;63121;51.458;-0.110;2023-01-13T00:39:44;100126.47;;;10.75;58.34
74615;BME280;63121;51.458;-0.110;2023-01-13T00:42:10;100133.44;;;10.70;58.44
74615;BME280;63121;51.458;-0.110;2023-01-13T00:44:54;100125.91;;;11.00;57.27
74615;BME280;63121;51.458;-0.110;2023-01-13T00:47:26;100150.41;;;10.84;56.73
74615;BME280;63121;51.458;-0.110;2023-01-13T00:49:51;100141.28;;;10.66;57.34
74615;BME280;63121;51.458;-0.110;2023-01-13T00:52:17;100125.00;;;10.62;57.53
74615;BME280;63121;51.458;-0.110;2023-01-13T00:54:42;100129.41;;;10.58;57.38
74615;BME280;63121;51.458;-0.110;2023-01-13T00:57:08;100121.66;;;10.99;56.45
74615;BME280;63121;51.458;-0.110;2023-01-13T00:59:33;100132.53;;;10.73;57.07
74615;BME280;63121;51.458;-0.110;2023-01-13T01:01:59;100117.91;;;10.73;56.51
74615;BME280;63121;51.458;-0.110;2023-01-13T01:04:24;100134.44;;;10.65;56.79
74615;BME280;63121;51.458;-0.110;2023-01-13T01:06:50;100132.41;;;11.18;56.05
74615;BME280;63121;51.458;-0.110;2023-01-13T01:09:16;100133.41;;;10.73;56.76
74615;BME280;63121;51.458;-0.110;2023-01-13T01:11:42;100116.28;;;10.69;57.01
74615;BME280;63121;51.458;-0.110;2023-01-13T01:14:10;100131.69;;;10.72;57.01
74615;BME280;63121;51.458;-0.110;2023-01-13T01:16:36;100130.03;;;10.70;56.47
74615;BME280;63121;51.458;-0.110;2023-01-13T01:19:03;100113.66;;;10.27;57.24
74615;BME280;63121;51.458;-0.110;2023-01-13T01:21:30;100128.81;;;10.46;57.10
74615;BME280;63121;51.458;-0.110;2023-01-13T01:23:58;100133.53;;;10.67;56.67
74615;BME280;63121;51.458;-0.110;2023-01-13T01:26:25;100137.50;;;10.42;56.86
74615;BME280;63121;51.458;-0.110;2023-01-13T01:28:51;100131.81;;;10.66;56.11
74615;BME280;63121;51.458;-0.110;2023-01-13T01:31:20;100132.69;;;10.20;57.18
74615;BME280;63121;51.458;-0.110;2023-01-13T01:33:46;100135.25;;;10.67;56.29
74615;BME280;63121;51.458;-0.110;2023-01-13T01:36:13;100119.44;;;10.40;56.85
74615;BME280;63121;51.458;-0.110;2023-01-13T01:38:39;100138.56;;;10.73;55.87
74615;BME280;63121;51.458;-0.110;2023-01-13T01:41:06;100136.50;;;10.47;56.88
74615;BME280;63121;51.458;-0.110;2023-01-13T01:46:32;100152.22;;;10.78;55.93
74615;BME280;63121;51.458;-0.110;2023-01-13T01:51:40;100141.91;;;10.35;57.12
74615;BME280;63121;51.458;-0.110;2023-01-13T01:54:09;100148.56;;;10.87;56.29
74615;BME280;63121;51.458;-0.110;2023-01-13T01:56:38;100151.13;;;10.48;57.07
74615;BME280;63121;51.458;-0.110;2023-01-13T01:59:05;100157.56;;;10.69;56.06
74615;BME280;63121;51.458;-0.110;2023-01-13T02:01:32;100152.34;;;10.27;56.74
74615;BME280;63121;51.458;-0.110;2023-01-13T02:04:02;100165.16;;;10.33;57.14
74615;BME280;63121;51.458;-0.110;2023-01-13T02:06:29;100171.19;;;10.77;55.58
74615;BME280;63121;51.458;-0.110;2023-01-13T02:08:56;100175.06;;;10.07;58.11
74615;BME280;63121;51.458;-0.110;2023-01-13T02:11:27;100172.47;;;10.56;56.43
74615;BME280;63121;51.458;-0.110;2023-01-13T02:14:12;100175.31;;;10.43;57.03
74615;BME280;63121;51.458;-0.110;2023-01-13T02:16:43;100174.03;;;10.17;57.54
74615;BME280;63121;51.458;-0.110;2023-01-13T02:20:05;100181.97;;;10.54;57.19
74615;BME280;63121;51.458;-0.110;2023-01-13T02:23:01;100183.63;;;10.99;55.97
74615;BME280;63121;51.458;-0.110;2023-01-13T02:32:01;100168.53;;;10.79;55.64
74615;BME280;63121;51.458;-0.110;2023-01-13T02:37:41;100170.28;;;10.78;56.21
74615;BME280;63121;51.458;-0.110;2023-01-13T02:40:24;100150.41;;;10.40;56.33
74615;BME280;63121;51.458;-0.110;2023-01-13T02:46:19;100161.47;;;10.47;56.78
74615;BME280;63121;51.458;-0.110;2023-01-13T02:48:48;100162.75;;;10.69;56.65
74615;BME280;63121;51.458;-0.110;2023-01-13T02:54:02;100157.34;;;10.36;56.66
74615;BME280;63121;51.458;-0.110;2023-01-13T02:56:37;100157.34;;;10.38;56.41
74615;BME280;63121;51.458;-0.110;2023-01-13T02:59:04;100157.56;;;10.69;55.89
74615;BME280;63121;51.458;-0.110;2023-01-13T03:01:30;100161.00;;;10.25;56.43
74615;BME280;63121;51.458;-0.110;2023-01-13T03:03:56;100140.22;;;10.34;56.55
74615;BME280;63121;51.458;-0.110;2023-01-13T03:06:37;100144.72;;;10.21;56.68
74615;BME280;63121;51.458;-0.110;2023-01-13T03:12:12;100159.00;;;10.41;55.97
74615;BME280;63121;51.458;-0.110;2023-01-13T03:14:53;100143.53;;;10.39;56.76
74615;BME280;63121;51.458;-0.110;2023-01-13T03:22:43;100148.09;;;10.25;56.89
74615;BME280;63121;51.458;-0.110;2023-01-13T03:25:21;100148.03;;;10.29;56.93
74615;BME280;63121;51.458;-0.110;2023-01-13T03:27:56;100144.59;;;10.27;57.50
74615;BME280;63121;51.458;-0.110;2023-01-13T03:30:27;100168.34;;;9.98;57.73
74615;BME280;63121;51.458;-0.110;2023-01-13T03:33:14;100164.88;;;9.99;57.58
74615;BME280;63121;51.458;-0.110;2023-01-13T03:35:44;100160.94;;;10.29;57.05
74615;BME280;63121;51.458;-0.110;2023-01-13T03:38:32;100159.31;;;10.22;57.88
74615;BME280;63121;51.458;-0.110;2023-01-13T03:41:04;100163.03;;;10.54;56.13
74615;BME280;63121;51.458;-0.110;2023-01-13T03:43:34;100167.38;;;10.52;56.55
74615;BME280;63121;51.458;-0.110;2023-01-13T03:46:24;100168.97;;;10.12;57.37
74615;BME280;63121;51.458;-0.110;2023-01-13T03:48:53;100152.78;;;10.51;56.78
74615;BME280;63121;51.458;-0.110;2023-01-13T03:51:23;100148.13;;;10.23;56.64
74615;BME280;63121;51.458;-0.110;2023-01-13T03:53:57;100175.00;;;10.58;55.95
74615;BME280;63121;51.458;-0.110;2023-01-13T03:56:30;100176.22;;;10.40;56.39
74615;BME280;63121;51.458;-0.110;2023-01-13T03:58:59;100170.28;;;10.35;56.59
74615;BME280;63121;51.458;-0.110;2023-01-13T04:04:56;100162.69;;;10.71;55.52
74615;BME280;63121;51.458;-0.110;2023-01-13T04:07:46;100172.16;;;10.25;56.77
74615;BME280;63121;51.458;-0.110;2023-01-13T04:10:18;100181.56;;;10.74;56.13
74615;BME280;63121;51.458;-0.110;2023-01-13T04:12:52;100201.38;;;10.72;55.14
74615;BME280;63121;51.458;-0.110;2023-01-13T04:15:42;100194.22;;;10.87;55.57
74615;BME280;63121;51.458;-0.110;2023-01-13T04:18:16;100187.31;;;10.87;55.78
74615;BME280;63121;51.458;-0.110;2023-01-13T04:20:44;100210.44;;;10.92;55.27
74615;BME280;63121;51.458;-0.110;2023-01-13T04:23:11;100202.09;;;10.81;55.83
74615;BME280;63121;51.458;-0.110;2023-01-13T04:25:41;100205.19;;;10.54;56.66
74615;BME280;63121;51.458;-0.110;2023-01-13T04:28:08;100203.56;;;10.49;57.18
74615;BME280;63121;51.458;-0.110;2023-01-13T04:30:33;100195.19;;;10.81;56.30
74615;BME280;63121;51.458;-0.110;2023-01-13T04:32:59;100202.75;;;10.45;56.55
74615;BME280;63121;51.458;-0.110;2023-01-13T04:35:25;100199.63;;;10.29;57.95
74615;BME280;63121;51.458;-0.110;2023-01-13T04:38:16;100195.81;;;10.49;56.64
74615;BME280;63121;51.458;-0.110;2023-01-13T04:40:49;100192.19;;;10.59;56.63
74615;BME280;63121;51.458;-0.110;2023-01-13T04:43:15;100195.22;;;10.36;57.73
74615;BME280;63121;51.458;-0.110;2023-01-13T04:45:41;100193.13;;;10.98;56.16
74615;BME280;63121;51.458;-0.110;2023-01-13T04:48:07;100199.44;;;10.40;57.65
74615;BME280;63121;51.458;-0.110;2023-01-13T04:50:33;100205.41;;;10.42;57.50
74615;BME280;63121;51.458;-0.110;2023-01-13T04:52:58;100199.53;;;10.34;58.12
74615;BME280;63121;51.458;-0.110;2023-01-13T04:55:25;100205.00;;;10.15;57.82
74615;BME280;63121;51.458;-0.110;2023-01-13T04:57:51;100197.00;;;10.76;56.56
74615;BME280;63121;51.458;-0.110;2023-01-13T05:00:26;100210.47;;;10.48;57.30
74615;BME280;63121;51.458;-0.110;2023-01-13T05:02:51;100208.25;;;10.27;57.63
74615;BME280;63121;51.458;-0.110;2023-01-13T05:05:17;100209.63;;;10.48;56.95
74615;BME280;63121;51.458;-0.110;2023-01-13T05:07:46;100205.00;;;10.14;58.05
74615;BME280;63121;51.458;-0.110;2023-01-13T05:13:12;100214.50;;;10.62;56.51
74615;BME280;63121;51.458;-0.110;2023-01-13T05:16:01;100206.53;;;10.27;57.91
74615;BME280;63121;51.458;-0.110;2023-01-13T05:18:46;100203.97;;;10.26;58.25
74615;BME280;63121;51.458;-0.110;2023-01-13T05:21:12;100215.88;;;10.34;57.75
74615;BME280;63121;51.458;-0.110;2023-01-13T05:23:57;100207.13;;;9.90;58.61
74615;BME280;63121;51.458;-0.110;2023-01-13T05:26:41;100222.03;;;10.24;57.39
74615;BME280;63121;51.458;-0.110;2023-01-13T05:29:10;100217.31;;;10.49;56.88
74615;BME280;63121;51.458;-0.110;2023-01-13T05:31:35;100233.34;;;10.18;57.61
74615;BME280;63121;51.458;-0.110;2023-01-13T05:34:01;100226.56;;;10.11;57.68
74615;BME280;63121;51.458;-0.110;2023-01-13T05:36:26;100212.75;;;10.14;58.08
74615;BME280;63121;51.458;-0.110;2023-01-13T05:38:52;100224.59;;;10.26;57.39
74615;BME280;63121;51.458;-0.110;2023-01-13T05:41:17;100231.97;;;9.96;58.31
74615;BME280;63121;51.458;-0.110;2023-01-13T05:44:01;100208.75;;;9.97;58.20
74615;BME280;63121;51.458;-0.110;2023-01-13T05:46:29;100214.09;;;9.87;58.75
74615;BME280;63121;51.458;-0.110;2023-01-13T05:48:55;100221.22;;;10.22;58.42
74615;BME280;63121;51.458;-0.110;2023-01-13T05:51:20;100224.59;;;10.26;58.25
74615;BME280;63121;51.458;-0.110;2023-01-13T05:53:50;100208.59;;;10.05;58.60
74615;BME280;63121;51.458;-0.110;2023-01-13T05:56:15;100221.19;;;10.72;56.90
74615;BME280;63121;51.458;-0.110;2023-01-13T05:58:42;100239.53;;;10.07;58.47
74615;BME280;63121;51.458;-0.110;2023-01-13T06:01:09;100227.25;;;10.23;58.27
74615;BME280;63121;51.458;-0.110;2023-01-13T06:03:37;100244.84;;;9.97;59.35
74615;BME280;63121;51.458;-0.110;2023-01-13T06:06:06;100237.88;;;10.04;59.23
74615;BME280;63121;51.458;-0.110;2023-01-13T06:08:33;100249.47;;;10.28;59.14
74615;BME280;63121;51.458;-0.110;2023-01-13T06:10:58;100236.69;;;10.22;59.33
74615;BME280;63121;51.458;-0.110;2023-01-13T06:13:24;100250.00;;;9.97;60.02
74615;BME280;63121;51.458;-0.110;2023-01-13T06:15:50;100248.34;;;9.93;60.12
74615;BME280;63121;51.458;-0.110;2023-01-13T06:18:15;100231.06;;;9.98;60.07
74615;BME280;63121;51.458;-0.110;2023-01-13T06:20:41;100249.75;;;10.13;60.10
74615;BME280;63121;51.458;-0.110;2023-01-13T06:23:17;100251.38;;;9.66;61.20
74615;BME280;63121;51.458;-0.110;2023-01-13T06:26:32;100253.69;;;10.35;59.56
74615;BME280;63121;51.458;-0.110;2023-01-13T06:29:09;100260.00;;;10.16;59.51
74615;BME280;63121;51.458;-0.110;2023-01-13T06:32:11;100257.28;;;10.27;59.74
74615;BME280;63121;51.458;-0.110;2023-01-13T06:35:02;100270.06;;;10.33;59.73
74615;BME280;63121;51.458;-0.110;2023-01-13T06:37:29;100313.22;;;9.66;61.11
74615;BME280;63121;51.458;-0.110;2023-01-13T06:39:57;100279.38;;;9.89;60.27
74615;BME280;63121;51.458;-0.110;2023-01-13T06:42:26;100260.56;;;10.36;59.57
74615;BME280;63121;51.458;-0.110;2023-01-13T06:45:10;100295.84;;;10.36;59.34
74615;BME280;63121;51.458;-0.110;2023-01-13T06:47:36;100272.25;;;10.56;58.74
74615;BME280;63121;51.458;-0.110;2023-01-13T06:50:02;100302.44;;;9.98;59.89
74615;BME280;63121;51.458;-0.110;2023-01-13T06:52:27;100290.38;;;10.53;59.06
74615;BME280;63121;51.458;-0.110;2023-01-13T06:54:54;100297.19;;;10.04;60.55
74615;BME280;63121;51.458;-0.110;2023-01-13T06:57:20;100317.63;;;10.16;59.49
74615;BME280;63121;51.458;-0.110;2023-01-13T06:59:46;100305.56;;;10.17;60.24
74615;BME280;63121;51.458;-0.110;2023-01-13T07:02:12;100326.38;;;10.61;58.69
74615;BME280;63121;51.458;-0.110;2023-01-13T07:04:37;100335.53;;;10.24;59.92
74615;BME280;63121;51.458;-0.110;2023-01-13T07:07:05;100355.38;;;10.21;59.70
74615;BME280;63121;51.458;-0.110;2023-01-13T07:09:33;100357.47;;;10.54;59.11
74615;BME280;63121;51.458;-0.110;2023-01-13T07:11:58;100356.34;;;10.69;58.88
74615;BME280;63121;51.458;-0.110;2023-01-13T07:14:24;100362.94;;;10.33;59.17
74615;BME280;63121;51.458;-0.110;2023-01-13T07:17:08;100363.19;;;10.72;58.16
74615;BME280;63121;51.458;-0.110;2023-01-13T07:19:34;100369.00;;;10.30;59.22
74615;BME280;63121;51.458;-0.110;2023-01-13T07:22:00;100358.84;;;10.72;58.27
74615;BME280;63121;51.458;-0.110;2023-01-13T07:24:25;100363.00;;;10.28;59.47
74615;BME280;63121;51.458;-0.110;2023-01-13T07:26:51;100357.63;;;10.44;58.68
74615;BME280;63121;51.458;-0.110;2023-01-13T07:29:17;100374.47;;;10.09;59.96
74615;BME280;63121;51.458;-0.110;2023-01-13T07:31:43;100365.94;;;10.63;57.63
74615;BME280;63121;51.458;-0.110;2023-01-13T07:34:08;100376.72;;;10.83;57.74
74615;BME280;63121;51.458;-0.110;2023-01-13T07:36:34;100378.47;;;10.28;58.44
74615;BME280;63121;51.458;-0.110;2023-01-13T07:39:00;100381.25;;;10.70;57.59
74615;BME280;63121;51.458;-0.110;2023-01-13T07:41:26;100395.16;;;10.06;59.30
74615;BME280;63121;51.458;-0.110;2023-01-13T07:44:58;100401.09;;;10.11;58.91
74615;BME280;63121;51.458;-0.110;2023-01-13T07:47:27;100405.28;;;10.75;57.76
74615;BME280;63121;51.458;-0.110;2023-01-13T07:49:53;100407.19;;;10.64;57.98
74615;BME280;63121;51.458;-0.110;2023-01-13T07:52:19;100405.78;;;10.96;56.95
74615;BME280;63121;51.458;-0.110;2023-01-13T07:54:47;100415.25;;;10.43;58.36
74615;BME280;63121;51.458;-0.110;2023-01-13T07:57:14;100413.97;;;10.71;57.46
74615;BME280;63121;51.458;-0.110;2023-01-13T07:59:40;100421.88;;;10.61;57.95
74615;BME280;63121;51.458;-0.110;2023-01-13T08:02:11;100434.47;;;10.79;58.12
74615;BME280;63121;51.458;-0.110;2023-01-13T08:04:37;100431.66;;;10.93;56.86
74615;BME280;63121;51.458;-0.110;2023-01-13T08:07:04;100444.47;;;10.45;58.30
74615;BME280;63121;51.458;-0.110;2023-01-13T08:09:29;100449.00;;;10.86;57.51
74615;BME280;63121;51.458;-0.110;2023-01-13T08:11:55;100450.03;;;10.74;58.12
74615;BME280;63121;51.458;-0.110;2023-01-13T08:14:39;100443.44;;;10.56;57.99
74615;BME280;63121;51.458;-0.110;2023-01-13T08:17:06;100446.00;;;10.58;58.25
74615;BME280;63121;51.458;-0.110;2023-01-13T08:19:32;100465.66;;;10.67;57.94
74615;BME280;63121;51.458;-0.110;2023-01-13T08:21:58;100467.63;;;10.51;58.75
74615;BME280;63121;51.458;-0.110;2023-01-13T08:24:23;100473.00;;;10.93;57.56
74615;BME280;63121;51.458;-0.110;2023-01-13T08:26:49;100474.06;;;10.80;57.45
74615;BME280;63121;51.458;-0.110;2023-01-13T08:29:15;100479.25;;;10.78;57.66
74615;BME280;63121;51.458;-0.110;2023-01-13T08:31:41;100490.69;;;11.14;57.15
74615;BME280;63121;51.458;-0.110;2023-01-13T08:34:10;100492.09;;;10.81;57.78
74615;BME280;63121;51.458;-0.110;2023-01-13T08:36:35;100513.50;;;10.89;57.34
74615;BME280;63121;51.458;-0.110;2023-01-13T08:39:01;100510.63;;;11.57;55.80
74615;BME280;63121;51.458;-0.110;2023-01-13T08:41:27;100511.81;;;10.87;57.31
74615;BME280;63121;51.458;-0.110;2023-01-13T08:44:11;100516.06;;;10.89;57.45
74615;BME280;63121;51.458;-0.110;2023-01-13T08:46:45;100516.88;;;10.94;57.17
74615;BME280;63121;51.458;-0.110;2023-01-13T08:49:15;100532.75;;;11.24;56.71
74615;BME280;63121;51.458;-0.110;2023-01-13T08:51:40;100534.31;;;11.33;55.88
74615;BME280;63121;51.458;-0.110;2023-01-13T08:54:06;100543.06;;;10.68;57.78
74615;BME280;63121;51.458;-0.110;2023-01-13T08:56:32;100551.13;;;11.06;56.42
74615;BME280;63121;51.458;-0.110;2023-01-13T08:58:58;100550.41;;;10.96;57.08
74615;BME280;63121;51.458;-0.110;2023-01-13T09:01:24;100550.31;;;11.02;56.69
74615;BME280;63121;51.458;-0.110;2023-01-13T09:03:50;100558.97;;;10.98;56.89
74615;BME280;63121;51.458;-0.110;2023-01-13T09:06:16;100569.47;;;10.89;56.80
74615;BME280;63121;51.458;-0.110;2023-01-13T09:08:41;100570.22;;;10.95;56.37
74615;BME280;63121;51.458;-0.110;2023-01-13T09:11:11;100577.50;;;11.26;55.74
74615;BME280;63121;51.458;-0.110;2023-01-13T09:13:59;100581.19;;;11.10;56.39
74615;BME280;63121;51.458;-0.110;2023-01-13T09:16:24;100580.84;;;10.75;57.03
74615;BME280;63121;51.458;-0.110;2023-01-13T09:18:50;100577.25;;;11.40;55.28
74615;BME280;63121;51.458;-0.110;2023-01-13T09:21:16;100577.91;;;12.01;53.38
74615;BME280;63121;51.458;-0.110;2023-01-13T09:23:43;100587.91;;;11.73;54.58
74615;BME280;63121;51.458;-0.110;2023-01-13T09:26:10;100581.41;;;11.49;54.88
74615;BME280;63121;51.458;-0.110;2023-01-13T09:28:36;100595.03;;;11.58;54.62
74615;BME280;63121;51.458;-0.110;2023-01-13T09:31:01;100606.03;;;11.20;55.50
74615;BME280;63121;51.458;-0.110;2023-01-13T09:33:27;100605.28;;;11.65;54.65
74615;BME280;63121;51.458;-0.110;2023-01-13T09:36:11;100616.91;;;11.39;55.21
74615;BME280;63121;51.458;-0.110;2023-01-13T09:38:36;100617.25;;;11.17;55.37
74615;BME280;63121;51.458;-0.110;2023-01-13T09:41:03;100625.69;;;11.80;53.59
74615;BME280;63121;51.458;-0.110;2023-01-13T09:43:54;100637.19;;;11.09;55.41
74615;BME280;63121;51.458;-0.110;2023-01-13T09:46:48;100630.56;;;11.98;53.20
74615;BME280;63121;51.458;-0.110;2023-01-13T09:49:23;100645.59;;;11.76;53.28
74615;BME280;63121;51.458;-0.110;2023-01-13T09:52:12;100644.44;;;11.96;53.21
74615;BME280;63121;51.458;-0.110;2023-01-13T09:54:44;100662.78;;;11.26;53.93
74615;BME280;63121;51.458;-0.110;2023-01-13T09:57:23;100659.97;;;11.94;52.51
74615;BME280;63121;51.458;-0.110;2023-01-13T09:59:51;100667.84;;;11.88;53.25
74615;BME280;63121;51.458;-0.110;2023-01-13T10:05:36;100683.66;;;11.68;53.21
74615;BME280;63121;51.458;-0.110;2023-01-13T10:08:22;100679.03;;;11.87;53.07
74615;BME280;63121;51.458;-0.110;2023-01-13T10:11:33;100691.84;;;11.95;52.32
74615;BME280;63121;51.458;-0.110;2023-01-13T10:20:15;100715.00;;;12.52;50.79
74615;BME280;63121;51.458;-0.110;2023-01-13T10:22:44;100713.91;;;12.17;51.59
74615;BME280;63121;51.458;-0.110;2023-01-13T10:25:30;100717.97;;;11.78;52.22
74615;BME280;63121;51.458;-0.110;2023-01-13T10:28:09;100724.06;;;12.28;51.33
74615;BME280;63121;51.458;-0.110;2023-01-13T10:30:39;100729.00;;;12.42;51.28
74615;BME280;63121;51.458;-0.110;2023-01-13T10:33:34;100719.06;;;12.19;51.53
74615;BME280;63121;51.458;-0.110;2023-01-13T10:36:04;100723.63;;;12.03;51.81
74615;BME280;63121;51.458;-0.110;2023-01-13T10:38:44;100745.38;;;12.43;51.07
74615;BME280;63121;51.458;-0.110;2023-01-13T10:43:36;100756.41;;;12.04;51.96
74615;BME280;63121;51.458;-0.110;2023-01-13T10:46:10;100751.91;;;11.59;52.09
74615;BME280;63121;51.458;-0.110;2023-01-13T10:51:31;100743.84;;;12.31;51.39
74615;BME280;63121;51.458;-0.110;2023-01-13T10:57:21;100750.31;;;12.55;50.29
74615;BME280;63121;51.458;-0.110;2023-01-13T10:59:48;100757.31;;;12.00;50.59
74615;BME280;63121;51.458;-0.110;2023-01-13T11:02:33;100766.59;;;12.12;51.01
74615;BME280;63121;51.458;-0.110;2023-01-13T11:05:15;100765.00;;;12.06;50.89
74615;BME280;63121;51.458;-0.110;2023-01-13T11:07:47;100768.41;;;12.56;49.75
74615;BME280;63121;51.458;-0.110;2023-01-13T11:10:31;100782.13;;;12.61;49.78
74615;BME280;63121;51.458;-0.110;2023-01-13T11:13:35;100773.00;;;12.42;50.04
74615;BME280;63121;51.458;-0.110;2023-01-13T11:16:22;100779.59;;;12.58;49.98
74615;BME280;63121;51.458;-0.110;2023-01-13T11:18:54;100785.25;;;12.79;49.25
74615;BME280;63121;51.458;-0.110;2023-01-13T11:21:42;100788.47;;;12.44;50.12
74615;BME280;63121;51.458;-0.110;2023-01-13T11:24:19;100788.28;;;12.56;49.96
74615;BME280;63121;51.458;-0.110;2023-01-13T11:27:19;100784.69;;;13.08;48.67
74615;BME280;63121;51.458;-0.110;2023-01-13T11:32:27;100797.56;;;12.68;49.25
74615;BME280;63121;51.458;-0.110;2023-01-13T11:34:59;100798.16;;;12.82;49.18
74615;BME280;63121;51.458;-0.110;2023-01-13T11:37:30;100809.69;;;13.11;48.38
74615;BME280;63121;51.458;-0.110;2023-01-13T11:40:13;100807.53;;;12.88;49.13
74615;BME280;63121;51.458;-0.110;2023-01-13T11:43:34;100799.63;;;12.95;49.54
74615;BME280;63121;51.458;-0.110;2023-01-13T11:46:07;100795.47;;;12.87;49.49
74615;BME280;63121;51.458;-0.110;2023-01-13T11:48:36;100803.78;;;12.59;50.62
74615;BME280;63121;51.458;-0.110;2023-01-13T11:51:09;100807.38;;;12.50;50.94
74615;BME280;63121;51.458;-0.110;2023-01-13T12:02:16;100805.41;;;13.10;49.55
74615;BME280;63121;51.458;-0.110;2023-01-13T12:05:36;100810.28;;;12.80;50.03
74615;BME280;63121;51.458;-0.110;2023-01-13T12:08:41;100808.59;;;12.29;51.47
74615;BME280;63121;51.458;-0.110;2023-01-13T12:11:22;100796.41;;;12.84;49.91
74615;BME280;63121;51.458;-0.110;2023-01-13T12:16:29;100799.66;;;12.47;51.53
74615;BME280;63121;51.458;-0.110;2023-01-13T12:21:34;100811.03;;;12.85;50.65
74615;BME280;63121;51.458;-0.110;2023-01-13T12:24:39;100813.44;;;12.94;50.44
74615;BME280;63121;51.458;-0.110;2023-01-13T12:29:45;100813.78;;;13.22;49.35
74615;BME280;63121;51.458;-0.110;2023-01-13T12:32:22;100818.13;;;13.20;49.41
74615;BME280;63121;51.458;-0.110;2023-01-13T12:35:01;100824.25;;;13.16;49.40
74615;BME280;63121;51.458;-0.110;2023-01-13T12:45:45;100848.22;;;13.31;48.86
74615;BME280;63121;51.458;-0.110;2023-01-13T12:48:43;100823.63;;;13.05;49.34
74615;BME280;63121;51.458;-0.110;2023-01-13T12:51:30;100838.22;;;12.63;50.15
74615;BME280;63121;51.458;-0.110;2023-01-13T12:54:01;100831.59;;;12.94;49.47
74615;BME280;63121;51.458;-0.110;2023-01-13T13:01:39;100846.28;;;12.94;49.20
74615;BME280;63121;51.458;-0.110;2023-01-13T13:04:20;100847.38;;;12.31;50.86
74615;BME280;63121;51.458;-0.110;2023-01-13T13:06:55;100869.81;;;12.32;50.67
74615;BME280;63121;51.458;-0.110;2023-01-13T13:09:32;100871.47;;;12.86;49.49
74615;BME280;63121;51.458;-0.110;2023-01-13T13:15:32;100874.44;;;12.64;50.14
74615;BME280;63121;51.458;-0.110;2023-01-13T13:23:36;100900.88;;;12.85;49.31
74615;BME280;63121;51.458;-0.110;2023-01-13T13:26:28;100913.00;;;12.81;49.25
74615;BME280;63121;51.458;-0.110;2023-01-13T13:29:23;100906.97;;;12.82;48.96
74615;BME280;63121;51.458;-0.110;2023-01-13T13:32:02;100909.72;;;13.19;49.18
74615;BME280;63121;51.458;-0.110;2023-01-13T13:34:37;100925.78;;;12.92;48.91
74615;BME280;63121;51.458;-0.110;2023-01-13T13:40:23;100933.84;;;12.75;49.82
74615;BME280;63121;51.458;-0.110;2023-01-13T13:43:10;100934.34;;;12.97;49.67
74615;BME280;63121;51.458;-0.110;2023-01-13T13:45:55;100926.41;;;13.05;49.17
74615;BME280;63121;51.458;-0.110;2023-01-13T13:48:53;100947.31;;;13.45;48.11
74615;BME280;63121;51.458;-0.110;2023-01-13T13:51:34;100936.34;;;13.31;48.62
74615;BME280;63121;51.458;-0.110;2023-01-13T13:54:05;100943.41;;;13.19;48.19
74615;BME280;63121;51.458;-0.110;2023-01-13T13:56:37;100949.06;;;12.95;49.28
74615;BME280;63121;51.458;-0.110;2023-01-13T13:59:09;100949.81;;;13.01;49.45
74615;BME280;63121;51.458;-0.110;2023-01-13T14:01:37;100962.28;;;13.28;48.76
74615;BME280;63121;51.458;-0.110;2023-01-13T14:04:12;100963.97;;;13.33;48.87
74615;BME280;63121;51.458;-0.110;2023-01-13T14:06:57;100956.66;;;13.06;48.94
74615;BME280;63121;51.458;-0.110;2023-01-13T14:09:25;100939.75;;;13.76;47.92
74615;BME280;63121;51.458;-0.110;2023-01-13T14:12:03;100960.91;;;13.10;48.81
74615;BME280;63121;51.458;-0.110;2023-01-13T14:14:42;100974.44;;;13.72;47.90
74615;BME280;63121;51.458;-0.110;2023-01-13T14:17:23;100976.13;;;13.75;47.47
74615;BME280;63121;51.458;-0.110;2023-01-13T14:20:04;100972.66;;;13.31;48.07
74615;BME280;63121;51.458;-0.110;2023-01-13T14:22:32;100980.44;;;13.31;48.23
74615;BME280;63121;51.458;-0.110;2023-01-13T14:24:57;100990.91;;;14.13;46.87
74615;BME280;63121;51.458;-0.110;2023-01-13T14:27:25;100993.44;;;14.57;45.97
74615;BME280;63121;51.458;-0.110;2023-01-13T14:29:53;101008.13;;;13.75;47.27
74615;BME280;63121;51.458;-0.110;2023-01-13T14:32:22;101010.06;;;14.06;46.83
74615;BME280;63121;51.458;-0.110;2023-01-13T14:34:50;101013.13;;;14.25;46.26
74615;BME280;63121;51.458;-0.110;2023-01-13T14:37:32;101023.19;;;13.56;47.52
74615;BME280;63121;51.458;-0.110;2023-01-13T14:39:59;101020.16;;;13.33;48.12
74615;BME280;63121;51.458;-0.110;2023-01-13T14:42:25;101021.47;;;13.99;46.99
74615;BME280;63121;51.458;-0.110;2023-01-13T14:44:52;101030.47;;;13.34;47.93
74615;BME280;63121;51.458;-0.110;2023-01-13T14:50:15;101052.94;;;13.37;47.74